sensor_id;sensor_type;location;lat;lon;timestamp;P1;durP1;ratioP1;P2;durP2;ratioP2
32611;SDS011;19030;49.478;8.986;2022-07-29T00:01:58;5.50;;;2.80;;
32611;SDS011;19030;49.478;8.986;2022-07-29T00:03:59;6.47;;;2.80;;
32611;SDS011;19030;49.478;8.986;2022-07-29T00:06:00;6.13;;;2.88;;
32611;SDS011;19030;49.478;8.986;2022-07-29T00:08:00;5.68;;;3.03;;
32611;SDS011;19030;49.478;8.986;2022-07-29T00:10:01;5.32;;;2.60;;
32611;SDS011;19030;49.478;8.986;2022-07-29T00:12:01;5.93;;;2.90;;
32611;SDS011;19030;49.478;8.986;2022-07-29T00:14:02;6.30;;;3.15;;
32611;SDS011;19030;49.478;8.986;2022-07-29T00:16:03;6.60;;;2.80;;
32611;SDS011;19030;49.478;8.986;2022-07-29T00:18:04;5.63;;;2.63;;
32611;SDS011;19030;49.478;8.986;2022-07-29T00:20:05;6.38;;;2.53;;
32611;SDS011;19030;49.478;8.986;2022-07-29T00:22:06;5.30;;;2.72;;
32611;SDS011;19030;49.478;8.986;2022-07-29T00:24:07;5.00;;;2.70;;
32611;SDS011;19030;49.478;8.986;2022-07-29T00:26:07;8.00;;;2.83;;
32611;SDS011;19030;49.478;8.986;2022-07-29T00:28:08;5.72;;;2.70;;
32611;SDS011;19030;49.478;8.986;2022-07-29T00:30:09;6.13;;;2.70;;
32611;SDS011;19030;49.478;8.986;2022-07-29T00:32:09;6.05;;;3.00;;
32611;SDS011;19030;49.478;8.986;2022-07-29T00:34:10;6.03;;;2.80;;
32611;SDS011;19030;49.478;8.986;2022-07-29T00:36:29;7.07;;;2.80;;
32611;SDS011;19030;49.478;8.986;2022-07-29T00:38:29;4.18;;;2.47;;
32611;SDS011;19030;49.478;8.986;2022-07-29T00:40:30;4.70;;;2.80;;
32611;SDS011;19030;49.478;8.986;2022-07-29T00:42:40;5.75;;;2.80;;
32611;SDS011;19030;49.478;8.986;2022-07-29T00:44:48;4.75;;;2.35;;
32611;SDS011;19030;49.478;8.986;2022-07-29T00:46:49;6.97;;;2.95;;
32611;SDS011;19030;49.478;8.986;2022-07-29T00:48:49;4.55;;;2.58;;
32611;SDS011;19030;49.478;8.986;2022-07-29T00:50:50;5.63;;;2.80;;
32611;SDS011;19030;49.478;8.986;2022-07-29T00:52:51;6.25;;;3.20;;
32611;SDS011;19030;49.478;8.986;2022-07-29T00:54:52;6.60;;;2.67;;
32611;SDS011;19030;49.478;8.986;2022-07-29T00:56:53;4.68;;;2.80;;
32611;SDS011;19030;49.478;8.986;2022-07-29T00:58:53;6.43;;;2.83;;
32611;SDS011;19030;49.478;8.986;2022-07-29T01:00:56;5.05;;;2.60;;
32611;SDS011;19030;49.478;8.986;2022-07-29T01:02:58;7.88;;;2.90;;
32611;SDS011;19030;49.478;8.986;2022-07-29T01:04:58;4.78;;;2.80;;
32611;SDS011;19030;49.478;8.986;2022-07-29T01:07:00;5.05;;;2.70;;
32611;SDS011;19030;49.478;8.986;2022-07-29T01:09:03;7.68;;;3.20;;
32611;SDS011;19030;49.478;8.986;2022-07-29T01:11:04;5.93;;;2.90;;
32611;SDS011;19030;49.478;8.986;2022-07-29T01:13:04;4.85;;;2.80;;
32611;SDS011;19030;49.478;8.986;2022-07-29T01:15:06;5.57;;;3.28;;
32611;SDS011;19030;49.478;8.986;2022-07-29T01:17:10;6.43;;;3.17;;
32611;SDS011;19030;49.478;8.986;2022-07-29T01:19:25;7.07;;;2.92;;
32611;SDS011;19030;49.478;8.986;2022-07-29T01:21:54;4.03;;;2.67;;
32611;SDS011;19030;49.478;8.986;2022-07-29T01:26:34;6.43;;;2.90;;
32611;SDS011;19030;49.478;8.986;2022-07-29T01:29:07;6.40;;;2.88;;
32611;SDS011;19030;49.478;8.986;2022-07-29T01:31:18;7.32;;;3.47;;
32611;SDS011;19030;49.478;8.986;2022-07-29T01:33:24;6.35;;;2.85;;
32611;SDS011;19030;49.478;8.986;2022-07-29T01:35:45;6.30;;;3.15;;
32611;SDS011;19030;49.478;8.986;2022-07-29T01:37:47;6.22;;;3.00;;
32611;SDS011;19030;49.478;8.986;2022-07-29T01:42:00;7.47;;;3.10;;
32611;SDS011;19030;49.478;8.986;2022-07-29T01:44:10;7.35;;;3.45;;
32611;SDS011;19030;49.478;8.986;2022-07-29T01:46:14;4.82;;;2.80;;
32611;SDS011;19030;49.478;8.986;2022-07-29T01:48:34;6.85;;;3.20;;
32611;SDS011;19030;49.478;8.986;2022-07-29T01:51:27;6.00;;;2.80;;
32611;SDS011;19030;49.478;8.986;2022-07-29T01:53:29;5.15;;;2.70;;
32611;SDS011;19030;49.478;8.986;2022-07-29T01:55:39;6.63;;;3.15;;
32611;SDS011;19030;49.478;8.986;2022-07-29T01:57:44;5.40;;;2.90;;
32611;SDS011;19030;49.478;8.986;2022-07-29T01:59:48;4.63;;;2.70;;
32611;SDS011;19030;49.478;8.986;2022-07-29T02:01:50;5.05;;;2.58;;
32611;SDS011;19030;49.478;8.986;2022-07-29T02:03:53;7.35;;;3.25;;
32611;SDS011;19030;49.478;8.986;2022-07-29T02:05:55;6.63;;;3.22;;
32611;SDS011;19030;49.478;8.986;2022-07-29T02:07:57;5.43;;;3.15;;
32611;SDS011;19030;49.478;8.986;2022-07-29T02:10:00;6.15;;;2.92;;
32611;SDS011;19030;49.478;8.986;2022-07-29T02:12:04;5.28;;;2.83;;
32611;SDS011;19030;49.478;8.986;2022-07-29T02:14:07;5.65;;;2.75;;
32611;SDS011;19030;49.478;8.986;2022-07-29T02:16:09;8.25;;;3.30;;
32611;SDS011;19030;49.478;8.986;2022-07-29T02:18:15;5.70;;;2.85;;
32611;SDS011;19030;49.478;8.986;2022-07-29T02:22:19;4.63;;;2.85;;
32611;SDS011;19030;49.478;8.986;2022-07-29T02:24:21;7.05;;;3.00;;
32611;SDS011;19030;49.478;8.986;2022-07-29T02:26:24;5.88;;;3.17;;
32611;SDS011;19030;49.478;8.986;2022-07-29T02:28:27;5.88;;;2.97;;
32611;SDS011;19030;49.478;8.986;2022-07-29T02:30:29;7.85;;;3.08;;
32611;SDS011;19030;49.478;8.986;2022-07-29T02:32:31;6.40;;;3.38;;
32611;SDS011;19030;49.478;8.986;2022-07-29T02:34:34;5.50;;;3.08;;
32611;SDS011;19030;49.478;8.986;2022-07-29T02:36:37;4.95;;;2.92;;
32611;SDS011;19030;49.478;8.986;2022-07-29T02:38:39;5.28;;;2.85;;
32611;SDS011;19030;49.478;8.986;2022-07-29T02:40:51;5.88;;;3.30;;
32611;SDS011;19030;49.478;8.986;2022-07-29T02:42:53;8.65;;;3.38;;
32611;SDS011;19030;49.478;8.986;2022-07-29T02:44:54;6.05;;;2.85;;
32611;SDS011;19030;49.478;8.986;2022-07-29T02:47:01;5.78;;;3.08;;
32611;SDS011;19030;49.478;8.986;2022-07-29T02:49:27;6.55;;;2.70;;
32611;SDS011;19030;49.478;8.986;2022-07-29T02:51:46;6.57;;;3.35;;
32611;SDS011;19030;49.478;8.986;2022-07-29T02:53:53;5.82;;;3.45;;
32611;SDS011;19030;49.478;8.986;2022-07-29T02:55:57;5.63;;;3.13;;
32611;SDS011;19030;49.478;8.986;2022-07-29T03:00:31;6.18;;;3.05;;
32611;SDS011;19030;49.478;8.986;2022-07-29T03:02:36;6.90;;;3.40;;
32611;SDS011;19030;49.478;8.986;2022-07-29T03:04:40;5.35;;;2.92;;
32611;SDS011;19030;49.478;8.986;2022-07-29T03:06:42;6.80;;;3.17;;
32611;SDS011;19030;49.478;8.986;2022-07-29T03:08:44;4.90;;;2.97;;
32611;SDS011;19030;49.478;8.986;2022-07-29T03:10:46;4.85;;;3.00;;
32611;SDS011;19030;49.478;8.986;2022-07-29T03:12:48;7.47;;;3.40;;
32611;SDS011;19030;49.478;8.986;2022-07-29T03:14:49;5.00;;;3.15;;
32611;SDS011;19030;49.478;8.986;2022-07-29T03:16:50;6.57;;;3.13;;
32611;SDS011;19030;49.478;8.986;2022-07-29T03:18:52;6.13;;;3.22;;
32611;SDS011;19030;49.478;8.986;2022-07-29T03:20:53;5.43;;;3.35;;
32611;SDS011;19030;49.478;8.986;2022-07-29T03:22:54;6.80;;;3.55;;
32611;SDS011;19030;49.478;8.986;2022-07-29T03:24:54;7.88;;;3.35;;
32611;SDS011;19030;49.478;8.986;2022-07-29T03:26:55;7.65;;;3.38;;
32611;SDS011;19030;49.478;8.986;2022-07-29T03:28:56;6.45;;;3.42;;
32611;SDS011;19030;49.478;8.986;2022-07-29T03:30:57;5.07;;;2.95;;
32611;SDS011;19030;49.478;8.986;2022-07-29T03:32:58;6.28;;;3.50;;
32611;SDS011;19030;49.478;8.986;2022-07-29T03:34:58;7.50;;;3.40;;
32611;SDS011;19030;49.478;8.986;2022-07-29T03:36:59;6.97;;;3.50;;
32611;SDS011;19030;49.478;8.986;2022-07-29T03:38:59;6.90;;;3.88;;
32611;SDS011;19030;49.478;8.986;2022-07-29T03:41:03;9.07;;;3.60;;
32611;SDS011;19030;49.478;8.986;2022-07-29T03:43:08;5.32;;;3.17;;
32611;SDS011;19030;49.478;8.986;2022-07-29T03:45:12;5.63;;;3.15;;
32611;SDS011;19030;49.478;8.986;2022-07-29T03:47:16;6.55;;;3.60;;
32611;SDS011;19030;49.478;8.986;2022-07-29T03:49:20;6.78;;;3.70;;
32611;SDS011;19030;49.478;8.986;2022-07-29T03:51:23;7.90;;;3.33;;
32611;SDS011;19030;49.478;8.986;2022-07-29T03:53:25;6.13;;;3.55;;
32611;SDS011;19030;49.478;8.986;2022-07-29T03:55:26;6.72;;;3.70;;
32611;SDS011;19030;49.478;8.986;2022-07-29T03:57:31;8.25;;;3.40;;
32611;SDS011;19030;49.478;8.986;2022-07-29T03:59:33;6.55;;;3.63;;
32611;SDS011;19030;49.478;8.986;2022-07-29T04:01:34;5.13;;;2.95;;
32611;SDS011;19030;49.478;8.986;2022-07-29T04:03:35;7.68;;;3.70;;
32611;SDS011;19030;49.478;8.986;2022-07-29T04:05:36;6.35;;;3.33;;
32611;SDS011;19030;49.478;8.986;2022-07-29T04:07:37;7.18;;;3.35;;
32611;SDS011;19030;49.478;8.986;2022-07-29T04:09:37;5.03;;;3.05;;
32611;SDS011;19030;49.478;8.986;2022-07-29T04:11:39;6.75;;;3.50;;
32611;SDS011;19030;49.478;8.986;2022-07-29T04:13:40;6.28;;;3.53;;
32611;SDS011;19030;49.478;8.986;2022-07-29T04:15:40;7.75;;;3.58;;
32611;SDS011;19030;49.478;8.986;2022-07-29T04:17:41;7.63;;;3.55;;
32611;SDS011;19030;49.478;8.986;2022-07-29T04:19:41;7.50;;;3.40;;
32611;SDS011;19030;49.478;8.986;2022-07-29T04:21:42;6.25;;;2.97;;
32611;SDS011;19030;49.478;8.986;2022-07-29T04:23:45;6.30;;;3.47;;
32611;SDS011;19030;49.478;8.986;2022-07-29T04:25:49;9.30;;;3.50;;
32611;SDS011;19030;49.478;8.986;2022-07-29T04:27:49;6.68;;;3.58;;
32611;SDS011;19030;49.478;8.986;2022-07-29T04:30:02;6.18;;;3.53;;
32611;SDS011;19030;49.478;8.986;2022-07-29T04:32:03;7.45;;;3.40;;
32611;SDS011;19030;49.478;8.986;2022-07-29T04:34:04;7.55;;;3.63;;
32611;SDS011;19030;49.478;8.986;2022-07-29T04:36:05;6.68;;;3.58;;
32611;SDS011;19030;49.478;8.986;2022-07-29T04:38:05;6.30;;;3.45;;
32611;SDS011;19030;49.478;8.986;2022-07-29T04:40:06;7.50;;;3.67;;
32611;SDS011;19030;49.478;8.986;2022-07-29T04:42:07;5.32;;;2.90;;
32611;SDS011;19030;49.478;8.986;2022-07-29T04:44:08;5.93;;;3.30;;
32611;SDS011;19030;49.478;8.986;2022-07-29T04:46:08;4.88;;;2.97;;
32611;SDS011;19030;49.478;8.986;2022-07-29T04:48:09;6.90;;;3.47;;
32611;SDS011;19030;49.478;8.986;2022-07-29T04:50:09;7.43;;;3.70;;
32611;SDS011;19030;49.478;8.986;2022-07-29T04:52:10;6.57;;;3.42;;
32611;SDS011;19030;49.478;8.986;2022-07-29T04:54:11;5.78;;;3.45;;
32611;SDS011;19030;49.478;8.986;2022-07-29T04:56:11;4.80;;;3.00;;
32611;SDS011;19030;49.478;8.986;2022-07-29T04:58:12;5.70;;;3.25;;
32611;SDS011;19030;49.478;8.986;2022-07-29T05:00:12;7.28;;;3.53;;
32611;SDS011;19030;49.478;8.986;2022-07-29T05:02:13;5.35;;;3.15;;
32611;SDS011;19030;49.478;8.986;2022-07-29T05:04:14;6.47;;;3.35;;
32611;SDS011;19030;49.478;8.986;2022-07-29T05:06:14;7.82;;;3.38;;
32611;SDS011;19030;49.478;8.986;2022-07-29T05:08:15;6.85;;;3.40;;
32611;SDS011;19030;49.478;8.986;2022-07-29T05:10:15;9.63;;;3.50;;
32611;SDS011;19030;49.478;8.986;2022-07-29T05:12:16;7.28;;;3.70;;
32611;SDS011;19030;49.478;8.986;2022-07-29T05:14:16;6.13;;;3.40;;
32611;SDS011;19030;49.478;8.986;2022-07-29T05:16:17;5.35;;;3.30;;
32611;SDS011;19030;49.478;8.986;2022-07-29T05:18:17;5.22;;;3.08;;
32611;SDS011;19030;49.478;8.986;2022-07-29T05:20:18;5.88;;;3.55;;
32611;SDS011;19030;49.478;8.986;2022-07-29T05:22:19;8.00;;;3.80;;
32611;SDS011;19030;49.478;8.986;2022-07-29T05:24:20;5.35;;;3.03;;
32611;SDS011;19030;49.478;8.986;2022-07-29T05:26:20;6.93;;;3.50;;
32611;SDS011;19030;49.478;8.986;2022-07-29T05:28:21;6.10;;;3.45;;
32611;SDS011;19030;49.478;8.986;2022-07-29T05:30:21;5.93;;;3.47;;
32611;SDS011;19030;49.478;8.986;2022-07-29T05:32:22;6.57;;;3.63;;
32611;SDS011;19030;49.478;8.986;2022-07-29T05:34:23;5.78;;;3.03;;
32611;SDS011;19030;49.478;8.986;2022-07-29T05:36:24;6.55;;;3.42;;
32611;SDS011;19030;49.478;8.986;2022-07-29T05:38:25;6.35;;;3.60;;
32611;SDS011;19030;49.478;8.986;2022-07-29T05:40:26;7.97;;;3.72;;
32611;SDS011;19030;49.478;8.986;2022-07-29T05:42:27;7.55;;;4.15;;
32611;SDS011;19030;49.478;8.986;2022-07-29T05:44:27;6.03;;;3.60;;
32611;SDS011;19030;49.478;8.986;2022-07-29T05:46:28;5.57;;;3.60;;
32611;SDS011;19030;49.478;8.986;2022-07-29T05:48:28;6.95;;;4.28;;
32611;SDS011;19030;49.478;8.986;2022-07-29T05:50:29;7.57;;;4.10;;
32611;SDS011;19030;49.478;8.986;2022-07-29T05:52:29;7.97;;;3.92;;
32611;SDS011;19030;49.478;8.986;2022-07-29T05:54:30;6.53;;;3.60;;
32611;SDS011;19030;49.478;8.986;2022-07-29T05:56:31;5.65;;;3.53;;
32611;SDS011;19030;49.478;8.986;2022-07-29T05:58:31;6.32;;;3.78;;
32611;SDS011;19030;49.478;8.986;2022-07-29T06:00:32;7.55;;;3.50;;
32611;SDS011;19030;49.478;8.986;2022-07-29T06:02:32;7.38;;;3.70;;
32611;SDS011;19030;49.478;8.986;2022-07-29T06:04:33;7.15;;;3.30;;
32611;SDS011;19030;49.478;8.986;2022-07-29T06:06:34;6.88;;;3.60;;
32611;SDS011;19030;49.478;8.986;2022-07-29T06:08:35;9.40;;;3.60;;
32611;SDS011;19030;49.478;8.986;2022-07-29T06:10:36;6.82;;;3.72;;
32611;SDS011;19030;49.478;8.986;2022-07-29T06:12:37;7.05;;;3.67;;
32611;SDS011;19030;49.478;8.986;2022-07-29T06:14:38;8.13;;;3.63;;
32611;SDS011;19030;49.478;8.986;2022-07-29T06:16:38;7.63;;;3.55;;
32611;SDS011;19030;49.478;8.986;2022-07-29T06:18:39;6.97;;;3.72;;
32611;SDS011;19030;49.478;8.986;2022-07-29T06:20:39;7.68;;;3.90;;
32611;SDS011;19030;49.478;8.986;2022-07-29T06:22:40;7.35;;;3.70;;
32611;SDS011;19030;49.478;8.986;2022-07-29T06:24:40;7.28;;;3.53;;
32611;SDS011;19030;49.478;8.986;2022-07-29T06:26:43;6.88;;;3.65;;
32611;SDS011;19030;49.478;8.986;2022-07-29T06:28:44;11.07;;;3.90;;
32611;SDS011;19030;49.478;8.986;2022-07-29T06:30:44;8.65;;;3.88;;
32611;SDS011;19030;49.478;8.986;2022-07-29T06:32:45;8.32;;;3.75;;
32611;SDS011;19030;49.478;8.986;2022-07-29T06:34:46;6.28;;;3.50;;
32611;SDS011;19030;49.478;8.986;2022-07-29T06:36:47;8.38;;;3.67;;
32611;SDS011;19030;49.478;8.986;2022-07-29T06:38:49;8.23;;;3.80;;
32611;SDS011;19030;49.478;8.986;2022-07-29T06:40:50;12.35;;;4.15;;
32611;SDS011;19030;49.478;8.986;2022-07-29T06:43:07;8.13;;;4.18;;
32611;SDS011;19030;49.478;8.986;2022-07-29T06:45:08;8.43;;;4.07;;
32611;SDS011;19030;49.478;8.986;2022-07-29T06:47:09;6.82;;;3.38;;
32611;SDS011;19030;49.478;8.986;2022-07-29T06:49:10;8.23;;;4.22;;
32611;SDS011;19030;49.478;8.986;2022-07-29T06:51:12;14.30;;;4.03;;
32611;SDS011;19030;49.478;8.986;2022-07-29T06:53:13;9.82;;;3.80;;
32611;SDS011;19030;49.478;8.986;2022-07-29T06:55:13;7.05;;;3.85;;
32611;SDS011;19030;49.478;8.986;2022-07-29T06:57:14;11.05;;;4.30;;
32611;SDS011;19030;49.478;8.986;2022-07-29T06:59:14;7.70;;;4.00;;
32611;SDS011;19030;49.478;8.986;2022-07-29T07:01:15;7.53;;;3.45;;
32611;SDS011;19030;49.478;8.986;2022-07-29T07:03:16;9.15;;;3.70;;
32611;SDS011;19030;49.478;8.986;2022-07-29T07:05:18;6.63;;;3.50;;
32611;SDS011;19030;49.478;8.986;2022-07-29T07:07:18;6.75;;;3.38;;
32611;SDS011;19030;49.478;8.986;2022-07-29T07:09:19;7.57;;;4.20;;
32611;SDS011;19030;49.478;8.986;2022-07-29T07:11:19;8.00;;;3.58;;
32611;SDS011;19030;49.478;8.986;2022-07-29T07:13:20;6.32;;;3.85;;
32611;SDS011;19030;49.478;8.986;2022-07-29T07:15:20;5.85;;;3.60;;
32611;SDS011;19030;49.478;8.986;2022-07-29T07:17:21;6.82;;;3.70;;
32611;SDS011;19030;49.478;8.986;2022-07-29T07:19:22;6.07;;;3.70;;
32611;SDS011;19030;49.478;8.986;2022-07-29T07:21:23;6.55;;;4.10;;
32611;SDS011;19030;49.478;8.986;2022-07-29T07:23:23;7.25;;;3.95;;
32611;SDS011;19030;49.478;8.986;2022-07-29T07:25:24;7.57;;;4.03;;
32611;SDS011;19030;49.478;8.986;2022-07-29T07:27:25;8.13;;;3.95;;
32611;SDS011;19030;49.478;8.986;2022-07-29T07:29:27;7.80;;;4.47;;
32611;SDS011;19030;49.478;8.986;2022-07-29T07:31:27;6.40;;;3.50;;
32611;SDS011;19030;49.478;8.986;2022-07-29T07:33:28;9.10;;;4.35;;
32611;SDS011;19030;49.478;8.986;2022-07-29T07:35:29;7.05;;;3.97;;
32611;SDS011;19030;49.478;8.986;2022-07-29T07:37:29;7.15;;;3.33;;
32611;SDS011;19030;49.478;8.986;2022-07-29T07:39:30;6.03;;;3.72;;
32611;SDS011;19030;49.478;8.986;2022-07-29T07:41:30;5.85;;;3.72;;
32611;SDS011;19030;49.478;8.986;2022-07-29T07:43:31;7.15;;;4.10;;
32611;SDS011;19030;49.478;8.986;2022-07-29T07:45:32;7.75;;;3.80;;
32611;SDS011;19030;49.478;8.986;2022-07-29T07:47:32;9.75;;;3.90;;
32611;SDS011;19030;49.478;8.986;2022-07-29T07:49:33;8.88;;;3.83;;
32611;SDS011;19030;49.478;8.986;2022-07-29T07:51:34;7.75;;;4.10;;
32611;SDS011;19030;49.478;8.986;2022-07-29T07:53:34;8.50;;;3.75;;
32611;SDS011;19030;49.478;8.986;2022-07-29T07:55:39;6.10;;;3.65;;
32611;SDS011;19030;49.478;8.986;2022-07-29T07:57:40;8.00;;;4.18;;
32611;SDS011;19030;49.478;8.986;2022-07-29T07:59:41;9.18;;;4.25;;
32611;SDS011;19030;49.478;8.986;2022-07-29T08:01:42;7.00;;;3.55;;
32611;SDS011;19030;49.478;8.986;2022-07-29T08:03:42;7.80;;;4.25;;
32611;SDS011;19030;49.478;8.986;2022-07-29T08:05:43;9.50;;;4.10;;
32611;SDS011;19030;49.478;8.986;2022-07-29T08:07:44;6.43;;;4.43;;
32611;SDS011;19030;49.478;8.986;2022-07-29T08:09:46;8.05;;;4.35;;
32611;SDS011;19030;49.478;8.986;2022-07-29T08:11:47;6.65;;;3.97;;
32611;SDS011;19030;49.478;8.986;2022-07-29T08:13:47;8.05;;;3.60;;
32611;SDS011;19030;49.478;8.986;2022-07-29T08:15:48;7.60;;;3.72;;
32611;SDS011;19030;49.478;8.986;2022-07-29T08:17:57;6.53;;;3.90;;
32611;SDS011;19030;49.478;8.986;2022-07-29T08:19:57;5.68;;;3.50;;
32611;SDS011;19030;49.478;8.986;2022-07-29T08:21:58;6.57;;;3.58;;
32611;SDS011;19030;49.478;8.986;2022-07-29T08:23:58;6.60;;;3.90;;
32611;SDS011;19030;49.478;8.986;2022-07-29T08:26:19;9.27;;;3.90;;
32611;SDS011;19030;49.478;8.986;2022-07-29T08:28:22;8.85;;;3.50;;
32611;SDS011;19030;49.478;8.986;2022-07-29T08:30:23;8.52;;;4.13;;
32611;SDS011;19030;49.478;8.986;2022-07-29T08:32:23;7.32;;;3.97;;
32611;SDS011;19030;49.478;8.986;2022-07-29T08:34:24;5.03;;;3.50;;
32611;SDS011;19030;49.478;8.986;2022-07-29T08:36:25;5.80;;;3.72;;
32611;SDS011;19030;49.478;8.986;2022-07-29T08:38:26;6.50;;;3.65;;
32611;SDS011;19030;49.478;8.986;2022-07-29T08:40:27;7.30;;;3.70;;
32611;SDS011;19030;49.478;8.986;2022-07-29T08:42:28;6.00;;;4.07;;
32611;SDS011;19030;49.478;8.986;2022-07-29T08:44:29;5.95;;;3.65;;
32611;SDS011;19030;49.478;8.986;2022-07-29T08:46:29;6.93;;;3.67;;
32611;SDS011;19030;49.478;8.986;2022-07-29T08:48:30;9.05;;;3.83;;
32611;SDS011;19030;49.478;8.986;2022-07-29T08:50:33;7.95;;;3.60;;
32611;SDS011;19030;49.478;8.986;2022-07-29T08:52:38;8.18;;;3.80;;
32611;SDS011;19030;49.478;8.986;2022-07-29T08:54:40;11.40;;;4.05;;
32611;SDS011;19030;49.478;8.986;2022-07-29T08:56:44;9.15;;;3.78;;
32611;SDS011;19030;49.478;8.986;2022-07-29T08:58:48;8.00;;;3.67;;
32611;SDS011;19030;49.478;8.986;2022-07-29T09:00:50;7.07;;;3.63;;
32611;SDS011;19030;49.478;8.986;2022-07-29T09:02:56;10.13;;;3.80;;
32611;SDS011;19030;49.478;8.986;2022-07-29T09:04:58;6.38;;;3.70;;
32611;SDS011;19030;49.478;8.986;2022-07-29T09:07:02;10.65;;;4.15;;
32611;SDS011;19030;49.478;8.986;2022-07-29T09:09:04;7.90;;;4.03;;
32611;SDS011;19030;49.478;8.986;2022-07-29T09:11:05;7.72;;;4.10;;
32611;SDS011;19030;49.478;8.986;2022-07-29T09:13:07;8.10;;;3.85;;
32611;SDS011;19030;49.478;8.986;2022-07-29T09:15:08;9.13;;;4.55;;
32611;SDS011;19030;49.478;8.986;2022-07-29T09:17:08;8.13;;;3.80;;
32611;SDS011;19030;49.478;8.986;2022-07-29T09:21:33;7.97;;;4.00;;
32611;SDS011;19030;49.478;8.986;2022-07-29T09:24:05;7.28;;;3.67;;
32611;SDS011;19030;49.478;8.986;2022-07-29T09:26:10;6.55;;;3.47;;
32611;SDS011;19030;49.478;8.986;2022-07-29T09:28:12;8.23;;;4.47;;
32611;SDS011;19030;49.478;8.986;2022-07-29T09:30:14;5.93;;;3.38;;
32611;SDS011;19030;49.478;8.986;2022-07-29T09:32:14;8.63;;;4.10;;
32611;SDS011;19030;49.478;8.986;2022-07-29T09:34:16;6.80;;;3.80;;
32611;SDS011;19030;49.478;8.986;2022-07-29T09:36:21;7.85;;;3.75;;
32611;SDS011;19030;49.478;8.986;2022-07-29T09:38:22;7.32;;;4.00;;
32611;SDS011;19030;49.478;8.986;2022-07-29T09:40:24;7.20;;;4.00;;
32611;SDS011;19030;49.478;8.986;2022-07-29T09:42:27;9.77;;;4.00;;
32611;SDS011;19030;49.478;8.986;2022-07-29T09:44:48;6.47;;;3.80;;
32611;SDS011;19030;49.478;8.986;2022-07-29T09:46:56;6.60;;;3.63;;
32611;SDS011;19030;49.478;8.986;2022-07-29T09:49:11;11.77;;;4.15;;
32611;SDS011;19030;49.478;8.986;2022-07-29T09:51:16;7.45;;;3.70;;
32611;SDS011;19030;49.478;8.986;2022-07-29T09:53:30;9.05;;;4.13;;
32611;SDS011;19030;49.478;8.986;2022-07-29T09:55:31;10.10;;;4.20;;
32611;SDS011;19030;49.478;8.986;2022-07-29T09:57:32;8.95;;;4.10;;
32611;SDS011;19030;49.478;8.986;2022-07-29T09:59:33;9.18;;;3.95;;
32611;SDS011;19030;49.478;8.986;2022-07-29T10:01:33;6.82;;;3.83;;
32611;SDS011;19030;49.478;8.986;2022-07-29T10:03:51;7.50;;;4.00;;
32611;SDS011;19030;49.478;8.986;2022-07-29T10:06:05;7.55;;;3.60;;
32611;SDS011;19030;49.478;8.986;2022-07-29T10:08:07;7.50;;;3.92;;
32611;SDS011;19030;49.478;8.986;2022-07-29T10:10:08;9.02;;;4.55;;
32611;SDS011;19030;49.478;8.986;2022-07-29T10:12:10;7.38;;;4.07;;
32611;SDS011;19030;49.478;8.986;2022-07-29T10:14:15;8.13;;;4.30;;
32611;SDS011;19030;49.478;8.986;2022-07-29T10:16:16;8.65;;;3.92;;
32611;SDS011;19030;49.478;8.986;2022-07-29T10:18:17;9.32;;;3.90;;
32611;SDS011;19030;49.478;8.986;2022-07-29T10:20:20;9.88;;;3.85;;
32611;SDS011;19030;49.478;8.986;2022-07-29T10:22:21;10.70;;;3.78;;
32611;SDS011;19030;49.478;8.986;2022-07-29T10:24:22;9.15;;;4.53;;
32611;SDS011;19030;49.478;8.986;2022-07-29T10:26:25;6.88;;;4.10;;
32611;SDS011;19030;49.478;8.986;2022-07-29T10:28:26;8.48;;;4.00;;
32611;SDS011;19030;49.478;8.986;2022-07-29T10:30:27;9.10;;;3.97;;
32611;SDS011;19030;49.478;8.986;2022-07-29T10:32:36;12.18;;;3.90;;
32611;SDS011;19030;49.478;8.986;2022-07-29T10:37:29;7.15;;;4.78;;
32611;SDS011;19030;49.478;8.986;2022-07-29T10:40:10;7.95;;;3.90;;
32611;SDS011;19030;49.478;8.986;2022-07-29T10:42:44;7.82;;;4.05;;
32611;SDS011;19030;49.478;8.986;2022-07-29T10:44:45;8.55;;;3.88;;
32611;SDS011;19030;49.478;8.986;2022-07-29T10:46:46;7.03;;;3.85;;
32611;SDS011;19030;49.478;8.986;2022-07-29T10:51:11;7.35;;;4.03;;
32611;SDS011;19030;49.478;8.986;2022-07-29T10:53:12;9.50;;;3.50;;
32611;SDS011;19030;49.478;8.986;2022-07-29T10:55:32;7.50;;;4.10;;
32611;SDS011;19030;49.478;8.986;2022-07-29T10:57:53;8.18;;;3.92;;
32611;SDS011;19030;49.478;8.986;2022-07-29T11:07:06;8.25;;;4.22;;
32611;SDS011;19030;49.478;8.986;2022-07-29T11:09:17;8.88;;;4.03;;
32611;SDS011;19030;49.478;8.986;2022-07-29T11:15:53;8.63;;;4.22;;
32611;SDS011;19030;49.478;8.986;2022-07-29T11:22:35;8.23;;;4.35;;
32611;SDS011;19030;49.478;8.986;2022-07-29T11:24:37;8.00;;;3.85;;
32611;SDS011;19030;49.478;8.986;2022-07-29T11:26:38;9.70;;;4.15;;
32611;SDS011;19030;49.478;8.986;2022-07-29T11:30:57;6.40;;;3.92;;
32611;SDS011;19030;49.478;8.986;2022-07-29T11:32:59;8.48;;;4.40;;
32611;SDS011;19030;49.478;8.986;2022-07-29T11:37:23;9.40;;;4.70;;
32611;SDS011;19030;49.478;8.986;2022-07-29T11:39:25;7.13;;;4.15;;
32611;SDS011;19030;49.478;8.986;2022-07-29T11:41:26;8.73;;;4.45;;
32611;SDS011;19030;49.478;8.986;2022-07-29T11:45:49;7.35;;;4.18;;
32611;SDS011;19030;49.478;8.986;2022-07-29T11:47:51;7.43;;;4.22;;
32611;SDS011;19030;49.478;8.986;2022-07-29T11:49:53;9.05;;;4.60;;
32611;SDS011;19030;49.478;8.986;2022-07-29T11:51:56;11.80;;;4.82;;
32611;SDS011;19030;49.478;8.986;2022-07-29T11:53:57;8.50;;;4.40;;
32611;SDS011;19030;49.478;8.986;2022-07-29T11:55:59;10.02;;;4.72;;
32611;SDS011;19030;49.478;8.986;2022-07-29T11:58:00;10.55;;;4.93;;
32611;SDS011;19030;49.478;8.986;2022-07-29T12:00:01;7.22;;;4.13;;
32611;SDS011;19030;49.478;8.986;2022-07-29T12:02:08;8.05;;;4.60;;
32611;SDS011;19030;49.478;8.986;2022-07-29T12:04:09;7.20;;;4.53;;
32611;SDS011;19030;49.478;8.986;2022-07-29T12:06:13;10.45;;;5.05;;
32611;SDS011;19030;49.478;8.986;2022-07-29T12:08:16;11.38;;;4.93;;
32611;SDS011;19030;49.478;8.986;2022-07-29T12:10:21;7.93;;;4.50;;
32611;SDS011;19030;49.478;8.986;2022-07-29T12:12:22;10.98;;;4.90;;
32611;SDS011;19030;49.478;8.986;2022-07-29T12:14:24;8.02;;;4.80;;
32611;SDS011;19030;49.478;8.986;2022-07-29T12:16:34;10.52;;;4.97;;
32611;SDS011;19030;49.478;8.986;2022-07-29T12:18:36;9.35;;;4.50;;
32611;SDS011;19030;49.478;8.986;2022-07-29T12:20:37;9.15;;;5.05;;
32611;SDS011;19030;49.478;8.986;2022-07-29T12:22:39;7.82;;;5.05;;
32611;SDS011;19030;49.478;8.986;2022-07-29T12:24:44;10.35;;;4.72;;
32611;SDS011;19030;49.478;8.986;2022-07-29T12:28:55;8.32;;;4.40;;
32611;SDS011;19030;49.478;8.986;2022-07-29T12:30:56;9.30;;;4.68;;
32611;SDS011;19030;49.478;8.986;2022-07-29T12:32:57;10.80;;;4.88;;
32611;SDS011;19030;49.478;8.986;2022-07-29T12:34:58;10.50;;;4.90;;
32611;SDS011;19030;49.478;8.986;2022-07-29T12:36:59;10.57;;;5.20;;
32611;SDS011;19030;49.478;8.986;2022-07-29T12:39:00;7.70;;;4.80;;
32611;SDS011;19030;49.478;8.986;2022-07-29T12:41:02;6.50;;;4.15;;
32611;SDS011;19030;49.478;8.986;2022-07-29T12:43:14;8.05;;;4.63;;
32611;SDS011;19030;49.478;8.986;2022-07-29T12:45:16;11.90;;;5.22;;
32611;SDS011;19030;49.478;8.986;2022-07-29T12:47:17;7.20;;;4.68;;
32611;SDS011;19030;49.478;8.986;2022-07-29T12:49:22;8.80;;;4.93;;
32611;SDS011;19030;49.478;8.986;2022-07-29T12:51:28;7.95;;;4.32;;
32611;SDS011;19030;49.478;8.986;2022-07-29T12:53:36;8.43;;;4.70;;
32611;SDS011;19030;49.478;8.986;2022-07-29T12:55:41;7.47;;;4.35;;
32611;SDS011;19030;49.478;8.986;2022-07-29T12:57:45;9.68;;;5.25;;
32611;SDS011;19030;49.478;8.986;2022-07-29T13:00:00;9.70;;;4.75;;
32611;SDS011;19030;49.478;8.986;2022-07-29T13:02:03;9.07;;;4.68;;
32611;SDS011;19030;49.478;8.986;2022-07-29T13:04:03;10.75;;;4.80;;
32611;SDS011;19030;49.478;8.986;2022-07-29T13:06:04;14.65;;;5.20;;